Time;durP1;ratioP1;P1;durP2;ratioP2;P2;SDS_P1;SDS_P2;PMS_P1;PMS_P2;Temp;Humidity;BMP_temperature;BMP_pressure;BME280_temperature;BME280_humidity;BME280_pressure;Samples;Min_cycle;Max_cycle;Signal;HPM_P1;HPM_P2
2022/03/14 00:01:02;;;;;;;;;;;14.00;27.40;;;;;;5045506;28;19927;-87
2022/03/14 00:03:40;;;;;;;;;;;14.10;27.40;;;;;;5080182;28;19916;-87
2022/03/14 00:06:10;;;;;;;;;;;14.10;27.40;;;;;;5077991;28;20015;-87
2022/03/14 00:08:36;;;;;;;;;;;14.10;27.40;;;;;;5078986;28;19927;-88
2022/03/14 00:11:02;;;;;;;;;;;14.10;27.40;;;;;;5076812;28;20020;-89
2022/03/14 00:13:29;;;;;;;;;;;14.20;27.40;;;;;;5079275;28;19916;-87
2022/03/14 00:15:58;;;;;;;;;;;14.20;27.40;;;;;;5078965;28;20340;-86
2022/03/14 00:18:25;;;;;;;;;;;14.20;27.40;;;;;;5078351;28;19924;-87
2022/03/14 00:20:50;;;;;;;;;;;14.30;27.40;;;;;;5077911;28;19962;-88
2022/03/14 00:23:19;;;;;;;;;;;14.30;27.40;;;;;;5077806;28;19920;-88
2022/03/14 00:25:45;;;;;;;;;;;14.30;27.50;;;;;;5059914;28;19939;-87
2022/03/14 00:28:12;;;;;;;;;;;14.30;27.40;;;;;;5059802;28;19912;-87
2022/03/14 00:30:37;;;;;;;;;;;14.30;27.50;;;;;;5059747;28;20026;-87
2022/03/14 00:33:03;;;;;;;;;;;14.30;27.50;;;;;;5076105;28;19956;-88
2022/03/14 00:35:28;;;;;;;;;;;14.30;27.50;;;;;;5075952;28;19924;-88
2022/03/14 00:37:54;;;;;;;;;;;14.30;27.50;;;;;;5075744;28;19927;-87
2022/03/14 00:40:19;;;;;;;;;;;14.30;27.50;;;;;;5077680;28;20334;-87
2022/03/14 00:42:48;;;;;;;;;;;14.30;27.50;;;;;;5079396;28;19913;-85
2022/03/14 00:45:14;;;;;;;;;;;14.30;27.50;;;;;;5080941;28;19913;-87
2022/03/14 00:47:39;;;;;;;;;;;14.30;27.40;;;;;;5077474;28;19962;-87
2022/03/14 00:50:05;;;;;;;;;;;14.30;27.40;;;;;;5076105;28;19912;-87
2022/03/14 00:52:31;;;;;;;;;;;14.30;27.40;;;;;;5077667;28;19988;-87
2022/03/14 00:54:57;;;;;;;;;;;14.30;27.40;;;;;;5059699;28;20013;-88
2022/03/14 00:57:24;;;;;;;;;;;14.30;27.40;;;;;;5077894;28;19915;-88
2022/03/14 00:59:49;;;;;;;;;;;14.30;27.40;;;;;;5059569;28;19909;-88
2022/03/14 01:02:15;;;;;;;;;;;14.30;27.50;;;;;;5059400;28;20003;-87
2022/03/14 01:04:40;;;;;;;;;;;14.30;27.50;;;;;;5077004;28;19909;-87
2022/03/14 01:07:05;;;;;;;;;;;14.30;27.50;;;;;;5077281;28;20279;-86
2022/03/14 01:09:31;;;;;;;;;;;14.30;27.50;;;;;;5078247;28;19921;-87
2022/03/14 01:11:57;;;;;;;;;;;14.30;27.60;;;;;;5059458;28;19909;-88
2022/03/14 01:14:23;;;;;;;;;;;14.30;27.60;;;;;;5077819;28;20402;-87
2022/03/14 01:16:49;;;;;;;;;;;14.30;27.70;;;;;;5076683;28;19909;-87
2022/03/14 01:19:15;;;;;;;;;;;14.30;27.70;;;;;;5077666;28;19920;-86
2022/03/14 01:21:41;;;;;;;;;;;14.30;27.80;;;;;;5059439;28;19912;-87
2022/03/14 01:24:07;;;;;;;;;;;14.30;27.80;;;;;;5059442;28;20291;-87
2022/03/14 01:26:34;;;;;;;;;;;14.30;27.90;;;;;;5059824;28;19909;-87
2022/03/14 01:29:00;;;;;;;;;;;14.30;27.90;;;;;;5059400;28;19912;-88
2022/03/14 01:31:26;;;;;;;;;;;14.30;27.90;;;;;;5059457;28;19923;-87
2022/03/14 01:33:52;;;;;;;;;;;14.30;27.90;;;;;;5058830;28;19913;-88
2022/03/14 01:36:18;;;;;;;;;;;14.30;27.90;;;;;;5077281;28;19956;-87
2022/03/14 01:38:44;;;;;;;;;;;14.40;27.70;;;;;;5059920;28;19914;-87
2022/03/14 01:41:10;;;;;;;;;;;14.30;27.50;;;;;;5077452;28;19940;-87
2022/03/14 01:43:36;;;;;;;;;;;14.30;27.50;;;;;;5077073;28;19958;-87
2022/03/14 01:46:01;;;;;;;;;;;14.30;27.60;;;;;;5077402;28;19932;-88
2022/03/14 01:48:27;;;;;;;;;;;14.40;27.60;;;;;;5058897;28;19932;-88
2022/03/14 01:50:53;;;;;;;;;;;14.40;27.60;;;;;;5067499;28;19932;-87
2022/03/14 01:53:19;;;;;;;;;;;14.40;27.60;;;;;;5039102;28;19923;-87
2022/03/14 01:55:48;;;;;;;;;;;14.40;27.50;;;;;;5057371;28;19920;-87
2022/03/14 01:58:16;;;;;;;;;;;14.40;27.60;;;;;;5057012;28;19913;-87
2022/03/14 02:00:42;;;;;;;;;;;14.40;27.60;;;;;;5039019;28;20046;-88
2022/03/14 02:03:08;;;;;;;;;;;14.50;27.60;;;;;;5039268;28;19920;-86
2022/03/14 02:05:37;;;;;;;;;;;14.50;27.60;;;;;;5056545;28;19916;-88
2022/03/14 02:08:04;;;;;;;;;;;14.50;27.70;;;;;;5038394;28;19909;-87
2022/03/14 02:10:30;;;;;;;;;;;14.50;27.70;;;;;;5038674;28;20013;-87
2022/03/14 02:12:56;;;;;;;;;;;14.60;27.80;;;;;;5039033;28;19913;-87
2022/03/14 02:15:21;;;;;;;;;;;14.60;27.90;;;;;;5053687;28;19924;-87
2022/03/14 02:17:47;;;;;;;;;;;14.60;28.00;;;;;;5057351;28;20352;-86
2022/03/14 02:20:12;;;;;;;;;;;14.60;28.00;;;;;;5058141;28;19942;-87
2022/03/14 02:22:37;;;;;;;;;;;14.60;28.10;;;;;;5057640;28;19959;-88
2022/03/14 02:25:07;;;;;;;;;;;14.60;28.20;;;;;;5057182;28;19923;-87
2022/03/14 02:27:33;;;;;;;;;;;14.60;28.30;;;;;;5057173;28;20015;-88
2022/03/14 02:29:59;;;;;;;;;;;14.50;28.50;;;;;;5057601;28;19948;-88
2022/03/14 02:32:24;;;;;;;;;;;14.50;28.80;;;;;;5058598;28;19920;-87
2022/03/14 02:34:50;;;;;;;;;;;14.40;29.30;;;;;;5057832;28;19917;-87
2022/03/14 02:37:15;;;;;;;;;;;14.30;29.70;;;;;;5075767;28;19909;-86
2022/03/14 02:39:41;;;;;;;;;;;14.20;29.90;;;;;;5057505;28;19923;-88
2022/03/14 02:42:06;;;;;;;;;;;14.10;30.20;;;;;;5057641;28;19915;-86
2022/03/14 02:44:32;;;;;;;;;;;14.00;30.50;;;;;;5075114;28;19916;-87
2022/03/14 02:46:58;;;;;;;;;;;14.00;30.80;;;;;;5057058;28;19908;-86
2022/03/14 02:49:23;;;;;;;;;;;13.80;31.30;;;;;;5075350;28;19908;-88
2022/03/14 02:51:50;;;;;;;;;;;13.70;32.30;;;;;;5056924;28;20352;-87
2022/03/14 02:54:16;;;;;;;;;;;13.60;34.20;;;;;;5056888;28;19958;-86
2022/03/14 02:56:41;;;;;;;;;;;13.50;36.10;;;;;;5057621;28;20360;-88
2022/03/14 02:59:07;;;;;;;;;;;13.30;37.80;;;;;;5057289;28;19908;-87
2022/03/14 03:01:33;;;;;;;;;;;13.20;39.40;;;;;;5075474;28;19916;-87
2022/03/14 03:03:59;;;;;;;;;;;13.10;40.90;;;;;;5057427;28;19916;-87
2022/03/14 03:06:25;;;;;;;;;;;13.10;42.30;;;;;;5056917;28;19920;-87
2022/03/14 03:08:52;;;;;;;;;;;13.00;43.80;;;;;;5057394;28;20275;-87
2022/03/14 03:11:18;;;;;;;;;;;13.00;45.20;;;;;;5057170;28;20010;-89
2022/03/14 03:13:45;;;;;;;;;;;13.00;46.30;;;;;;5058272;28;19913;-88
2022/03/14 03:16:13;;;;;;;;;;;12.90;47.50;;;;;;5058642;28;19931;-88
2022/03/14 03:18:39;;;;;;;;;;;12.80;48.60;;;;;;5059494;28;19932;-89
2022/03/14 03:21:04;;;;;;;;;;;12.80;49.60;;;;;;5077422;28;19920;-88
2022/03/14 03:23:30;;;;;;;;;;;12.80;50.30;;;;;;5062409;28;19974;-88
2022/03/14 03:25:55;;;;;;;;;;;12.70;51.10;;;;;;5063093;28;19919;-89
2022/03/14 03:28:21;;;;;;;;;;;12.70;51.90;;;;;;5081040;28;19974;-89
2022/03/14 03:30:47;;;;;;;;;;;12.70;52.60;;;;;;5063167;28;19909;-89
2022/03/14 03:33:12;;;;;;;;;;;12.80;53.20;;;;;;5062693;28;19924;-90
2022/03/14 03:35:38;;;;;;;;;;;12.80;53.80;;;;;;5080476;28;20283;-91
2022/03/14 03:38:03;;;;;;;;;;;12.80;54.20;;;;;;5062298;28;19916;-90
2022/03/14 03:40:29;;;;;;;;;;;12.80;54.40;;;;;;5062868;28;20267;-90
2022/03/14 03:42:54;;;;;;;;;;;12.80;54.70;;;;;;5062777;28;19920;-90
2022/03/14 03:45:20;;;;;;;;;;;12.80;55.00;;;;;;5062098;28;19920;-90
2022/03/14 03:47:46;;;;;;;;;;;12.80;55.30;;;;;;5061826;28;19923;-89
2022/03/14 03:50:12;;;;;;;;;;;12.80;55.70;;;;;;5061734;28;19913;-90
2022/03/14 03:52:37;;;;;;;;;;;12.80;55.90;;;;;;5079304;28;19987;-89
2022/03/14 03:55:03;;;;;;;;;;;12.80;56.00;;;;;;5061281;28;19912;-89
2022/03/14 03:57:30;;;;;;;;;;;12.80;56.20;;;;;;5080820;28;19916;-90
2022/03/14 03:59:56;;;;;;;;;;;12.70;56.30;;;;;;5061969;28;19908;-90
2022/03/14 04:02:21;;;;;;;;;;;12.70;56.50;;;;;;5062095;28;19939;-90
2022/03/14 04:04:47;;;;;;;;;;;12.60;56.90;;;;;;5062335;28;19931;-91
2022/03/14 04:07:13;;;;;;;;;;;12.60;57.00;;;;;;5063104;28;19939;-89
2022/03/14 04:09:39;;;;;;;;;;;12.50;57.00;;;;;;5062128;28;19909;-90
2022/03/14 04:12:05;;;;;;;;;;;12.50;57.30;;;;;;5063113;28;19917;-90
2022/03/14 04:14:30;;;;;;;;;;;12.50;57.50;;;;;;5061895;28;20263;-88
2022/03/14 04:16:55;;;;;;;;;;;12.50;57.70;;;;;;5078832;28;19919;-88
2022/03/14 04:19:21;;;;;;;;;;;12.50;58.00;;;;;;5080014;28;19969;-90
2022/03/14 04:21:52;;;;;;;;;;;12.50;58.10;;;;;;5079536;28;19943;-91
2022/03/14 04:24:18;;;;;;;;;;;12.50;58.30;;;;;;5061039;28;19913;-88
2022/03/14 04:26:45;;;;;;;;;;;12.50;58.00;;;;;;5061415;28;19917;-91
2022/03/14 04:29:11;;;;;;;;;;;12.50;58.10;;;;;;5060185;28;19925;-90
2022/03/14 04:31:36;;;;;;;;;;;12.50;58.30;;;;;;5060974;28;19912;-90
2022/03/14 04:34:02;;;;;;;;;;;12.50;58.50;;;;;;5061031;28;20261;-90
2022/03/14 04:36:27;;;;;;;;;;;12.50;58.70;;;;;;5061810;28;20284;-90
2022/03/14 04:38:53;;;;;;;;;;;12.50;58.90;;;;;;5062228;28;20286;-90
2022/03/14 04:41:18;;;;;;;;;;;12.50;58.90;;;;;;5062019;28;19912;-90
2022/03/14 04:43:44;;;;;;;;;;;12.50;59.00;;;;;;5079926;28;20020;-90
2022/03/14 04:46:09;;;;;;;;;;;12.60;59.10;;;;;;5080125;28;19908;-90
2022/03/14 04:48:35;;;;;;;;;;;12.60;59.20;;;;;;5061958;28;19916;-91
2022/03/14 04:51:01;;;;;;;;;;;12.60;59.30;;;;;;5062427;28;19904;-91
2022/03/14 04:53:26;;;;;;;;;;;12.60;59.30;;;;;;5061838;28;19921;-92
2022/03/14 04:55:52;;;;;;;;;;;12.60;59.40;;;;;;5061195;28;20383;-92
2022/03/14 04:58:17;;;;;;;;;;;12.60;59.30;;;;;;5062633;28;19960;-92
2022/03/14 05:00:43;;;;;;;;;;;12.50;59.30;;;;;;5079996;28;19916;-91
2022/03/14 05:03:08;;;;;;;;;;;12.40;59.40;;;;;;5061471;28;19921;-91
2022/03/14 05:05:34;;;;;;;;;;;12.40;59.50;;;;;;5080131;28;20348;-91
2022/03/14 05:08:01;;;;;;;;;;;12.40;59.70;;;;;;5061769;28;19923;-91
2022/03/14 05:10:27;;;;;;;;;;;12.40;59.80;;;;;;5060485;28;19958;-91
2022/03/14 05:12:54;;;;;;;;;;;12.40;60.00;;;;;;5060519;28;19920;-91
2022/03/14 05:15:19;;;;;;;;;;;12.50;60.10;;;;;;5078803;28;19908;-92
2022/03/14 05:17:45;;;;;;;;;;;12.50;60.20;;;;;;5061096;28;20352;-91
2022/03/14 05:20:12;;;;;;;;;;;12.50;60.30;;;;;;5078159;28;19909;-91
2022/03/14 05:22:48;;;;;;;;;;;12.50;60.20;;;;;;5060359;28;19917;-92
2022/03/14 05:25:16;;;;;;;;;;;12.50;60.30;;;;;;5059873;28;19909;-91
2022/03/14 05:27:41;;;;;;;;;;;12.50;60.40;;;;;;5056586;28;19912;-91
2022/03/14 05:30:08;;;;;;;;;;;12.50;60.60;;;;;;5056550;28;19978;-92
2022/03/14 05:32:35;;;;;;;;;;;12.50;60.60;;;;;;5058234;28;20419;-90
2022/03/14 05:35:00;;;;;;;;;;;12.50;60.80;;;;;;5055728;28;19920;-91
2022/03/14 05:37:26;;;;;;;;;;;12.50;60.80;;;;;;5055955;28;19916;-91
2022/03/14 05:39:51;;;;;;;;;;;12.50;60.90;;;;;;5055795;28;19913;-90
2022/03/14 05:42:17;;;;;;;;;;;12.50;61.10;;;;;;5055854;28;19913;-90
2022/03/14 05:44:43;;;;;;;;;;;12.50;61.10;;;;;;5056069;28;19913;-91
2022/03/14 05:47:09;;;;;;;;;;;12.50;61.10;;;;;;5055403;28;19912;-91
2022/03/14 05:49:35;;;;;;;;;;;12.50;61.20;;;;;;5056193;28;19956;-91
2022/03/14 05:52:00;;;;;;;;;;;12.40;61.40;;;;;;5075448;28;19935;-90
2022/03/14 05:54:26;;;;;;;;;;;12.40;61.40;;;;;;5059630;28;19920;-91
2022/03/14 05:56:51;;;;;;;;;;;12.40;61.40;;;;;;5059655;28;19938;-89
2022/03/14 05:59:17;;;;;;;;;;;12.40;61.50;;;;;;5059137;28;20291;-91
2022/03/14 06:01:43;;;;;;;;;;;12.40;61.60;;;;;;5057560;28;20043;-91
2022/03/14 06:04:09;;;;;;;;;;;12.50;61.60;;;;;;5058609;28;20024;-91
2022/03/14 06:06:34;;;;;;;;;;;12.50;62.00;;;;;;5060004;28;19944;-92
2022/03/14 06:09:00;;;;;;;;;;;12.50;62.10;;;;;;5077474;28;19984;-92
2022/03/14 06:11:27;;;;;;;;;;;12.50;62.20;;;;;;5077971;28;19915;-91
2022/03/14 06:13:53;;;;;;;;;;;12.50;62.30;;;;;;5056508;28;19928;-91
2022/03/14 06:16:18;;;;;;;;;;;12.50;62.40;;;;;;5055731;28;20339;-91
2022/03/14 06:18:44;;;;;;;;;;;12.50;62.50;;;;;;5056148;28;20153;-93
2022/03/14 06:21:09;;;;;;;;;;;12.50;62.50;;;;;;5056544;28;20381;-90
2022/03/14 06:23:36;;;;;;;;;;;12.50;62.60;;;;;;5057397;28;19917;-91
2022/03/14 06:26:01;;;;;;;;;;;12.50;62.60;;;;;;5059871;28;19915;-91
2022/03/14 06:28:27;;;;;;;;;;;12.50;62.80;;;;;;5074919;28;19908;-90
2022/03/14 06:30:53;;;;;;;;;;;12.50;62.80;;;;;;5077141;28;19919;-91
2022/03/14 06:33:19;;;;;;;;;;;12.50;62.80;;;;;;5074044;28;19923;-92
2022/03/14 06:35:44;;;;;;;;;;;12.50;62.90;;;;;;5075670;28;20348;-92
2022/03/14 06:38:10;;;;;;;;;;;12.50;62.90;;;;;;5075016;28;20356;-91
2022/03/14 06:40:36;;;;;;;;;;;12.50;63.20;;;;;;5074541;28;19916;-89
2022/03/14 06:43:01;;;;;;;;;;;12.50;63.30;;;;;;5074391;28;19912;-91
2022/03/14 06:45:27;;;;;;;;;;;12.60;63.50;;;;;;5057958;28;19923;-92
2022/03/14 06:47:54;;;;;;;;;;;12.60;63.50;;;;;;5075682;28;20348;-92
2022/03/14 06:50:21;;;;;;;;;;;12.60;63.60;;;;;;5058612;28;20300;-91
2022/03/14 06:52:47;;;;;;;;;;;12.60;64.00;;;;;;5041798;28;20011;-91
2022/03/14 06:55:13;;;;;;;;;;;12.70;64.10;;;;;;5058749;28;19971;-90
2022/03/14 06:57:38;;;;;;;;;;;12.70;64.30;;;;;;5078970;28;19909;-90
2022/03/14 07:00:04;;;;;;;;;;;12.80;64.50;;;;;;5063466;28;19955;-90
2022/03/14 07:02:30;;;;;;;;;;;12.90;64.60;;;;;;5061618;28;20368;-90
2022/03/14 07:04:55;;;;;;;;;;;12.90;64.60;;;;;;5061542;28;19993;-90
2022/03/14 07:07:21;;;;;;;;;;;13.00;64.70;;;;;;5062001;28;19912;-89
2022/03/14 07:09:46;;;;;;;;;;;13.10;64.60;;;;;;5061207;28;19960;-91
2022/03/14 07:12:12;;;;;;;;;;;13.10;64.60;;;;;;5062155;28;19916;-91
2022/03/14 07:14:37;;;;;;;;;;;13.10;64.60;;;;;;5061365;28;19924;-90
2022/03/14 07:17:03;;;;;;;;;;;13.10;64.60;;;;;;5061543;28;20003;-90
2022/03/14 07:19:29;;;;;;;;;;;13.10;64.40;;;;;;5080210;28;19923;-90
2022/03/14 07:21:54;;;;;;;;;;;13.20;64.60;;;;;;5061876;28;19920;-89
2022/03/14 07:24:20;;;;;;;;;;;13.30;64.60;;;;;;5062475;28;19920;-89
2022/03/14 07:26:45;;;;;;;;;;;13.30;64.30;;;;;;5049027;28;19913;-91
2022/03/14 07:29:11;;;;;;;;;;;13.30;64.20;;;;;;5041783;28;19947;-90
2022/03/14 07:31:37;;;;;;;;;;;13.30;64.10;;;;;;5041515;28;19909;-90
2022/03/14 07:34:03;;;;;;;;;;;13.30;64.20;;;;;;5042136;28;20391;-90
2022/03/14 07:36:29;;;;;;;;;;;13.30;64.20;;;;;;5060545;28;20288;-91
2022/03/14 07:38:56;;;;;;;;;;;13.30;64.20;;;;;;5041787;28;20011;-90
2022/03/14 07:41:22;;;;;;;;;;;13.30;64.40;;;;;;5041711;28;19919;-91
2022/03/14 07:43:48;;;;;;;;;;;13.30;64.40;;;;;;5041250;28;19952;-91
2022/03/14 07:46:13;;;;;;;;;;;13.40;64.30;;;;;;5059570;28;20289;-90
2022/03/14 07:48:39;;;;;;;;;;;13.40;64.30;;;;;;5040952;28;19995;-92
2022/03/14 07:51:04;;;;;;;;;;;13.50;64.40;;;;;;5052954;28;19920;-92
2022/03/14 07:53:35;;;;;;;;;;;13.50;64.30;;;;;;5058595;28;19924;-92
2022/03/14 07:56:01;;;;;;;;;;;13.60;64.30;;;;;;5046761;28;19912;-91
2022/03/14 07:58:27;;;;;;;;;;;13.60;64.30;;;;;;5051975;28;20413;-91
2022/03/14 08:00:54;;;;;;;;;;;13.70;64.20;;;;;;5060019;28;19912;-91
2022/03/14 08:03:21;;;;;;;;;;;13.70;64.40;;;;;;5078052;28;19908;-91
2022/03/14 08:05:47;;;;;;;;;;;13.80;64.50;;;;;;5077664;28;20007;-90
2022/03/14 08:08:15;;;;;;;;;;;14.00;64.40;;;;;;5058061;28;19966;-91
2022/03/14 08:10:41;;;;;;;;;;;14.00;64.30;;;;;;5059337;28;19918;-91
2022/03/14 08:13:07;;;;;;;;;;;14.00;64.20;;;;;;5058829;28;19913;-91
2022/03/14 08:15:33;;;;;;;;;;;14.10;64.20;;;;;;5075356;28;19927;-90
2022/03/14 08:17:59;;;;;;;;;;;14.10;64.30;;;;;;5056591;28;20010;-92
2022/03/14 08:20:26;;;;;;;;;;;14.20;64.30;;;;;;5058213;28;19931;-92
2022/03/14 08:22:53;;;;;;;;;;;14.20;64.10;;;;;;5060116;28;19953;-91
2022/03/14 08:25:19;;;;;;;;;;;14.20;64.20;;;;;;5078944;28;19927;-92
2022/03/14 08:27:46;;;;;;;;;;;14.30;64.30;;;;;;5060149;28;20140;-91
2022/03/14 08:30:12;;;;;;;;;;;14.30;64.50;;;;;;5060175;28;19975;-92
2022/03/14 08:32:39;;;;;;;;;;;14.40;64.50;;;;;;5058919;28;19966;-91
2022/03/14 08:35:08;;;;;;;;;;;14.40;64.50;;;;;;5060327;28;19966;-92
2022/03/14 08:37:38;;;;;;;;;;;14.50;64.30;;;;;;5058767;28;19916;-91
2022/03/14 08:40:09;;;;;;;;;;;14.40;64.30;;;;;;5076829;28;20342;-91
2022/03/14 08:42:34;;;;;;;;;;;14.50;64.40;;;;;;5076797;28;19913;-92
2022/03/14 08:45:00;;;;;;;;;;;14.50;64.50;;;;;;5077622;28;20738;-92
2022/03/14 08:47:26;;;;;;;;;;;14.50;64.40;;;;;;5079469;28;20299;-91
2022/03/14 08:49:51;;;;;;;;;;;14.60;64.10;;;;;;5047144;28;19920;-91
2022/03/14 08:52:17;;;;;;;;;;;14.60;64.30;;;;;;5059204;28;19917;-91
2022/03/14 08:54:42;;;;;;;;;;;14.60;64.20;;;;;;5058168;28;19962;-90
2022/03/14 08:57:08;;;;;;;;;;;14.60;64.10;;;;;;5056274;28;19975;-92
2022/03/14 08:59:33;;;;;;;;;;;14.70;64.30;;;;;;5040062;28;19908;-91
2022/03/14 09:01:59;;;;;;;;;;;14.70;64.30;;;;;;5041531;28;19917;-91
2022/03/14 09:04:24;;;;;;;;;;;14.80;64.40;;;;;;5040647;28;19913;-90
2022/03/14 09:06:50;;;;;;;;;;;14.80;64.30;;;;;;5040501;28;19916;-91
2022/03/14 09:09:16;;;;;;;;;;;14.80;63.70;;;;;;5040295;28;19923;-90
2022/03/14 09:11:42;;;;;;;;;;;14.80;64.00;;;;;;5057044;28;19916;-89
2022/03/14 09:14:07;;;;;;;;;;;14.90;63.70;;;;;;5038917;28;19913;-90
2022/03/14 09:16:35;;;;;;;;;;;14.90;64.00;;;;;;5058081;28;20003;-90
2022/03/14 09:19:01;;;;;;;;;;;15.00;64.10;;;;;;5057629;28;19944;-90
2022/03/14 09:21:27;;;;;;;;;;;14.90;63.60;;;;;;5057766;28;19923;-90
2022/03/14 09:23:53;;;;;;;;;;;15.00;63.70;;;;;;5057248;28;19917;-90
2022/03/14 09:26:31;;;;;;;;;;;15.00;63.80;;;;;;5042022;28;19963;-89
2022/03/14 09:28:59;;;;;;;;;;;15.10;64.00;;;;;;5041267;28;19996;-91
2022/03/14 09:31:27;;;;;;;;;;;15.10;64.00;;;;;;5059732;28;19928;-91
2022/03/14 09:33:53;;;;;;;;;;;15.10;63.90;;;;;;5043735;28;19921;-90
2022/03/14 09:36:18;;;;;;;;;;;15.10;63.90;;;;;;5058637;28;19924;-89
2022/03/14 09:38:44;;;;;;;;;;;15.00;63.80;;;;;;5058035;28;20336;-90
2022/03/14 09:41:12;;;;;;;;;;;15.00;63.80;;;;;;5058300;28;19917;-91
2022/03/14 09:43:38;;;;;;;;;;;14.90;63.80;;;;;;5042084;28;19952;-89
2022/03/14 09:46:05;;;;;;;;;;;14.80;63.60;;;;;;5040669;28;19917;-90
2022/03/14 09:48:36;;;;;;;;;;;14.80;63.70;;;;;;5040618;28;19912;-89
2022/03/14 09:51:02;;;;;;;;;;;14.90;64.10;;;;;;5067932;28;19921;-90
2022/03/14 09:53:28;;;;;;;;;;;14.80;63.90;;;;;;5043790;28;19916;-90
2022/03/14 09:55:55;;;;;;;;;;;14.90;64.10;;;;;;5045433;28;19943;-89
2022/03/14 09:58:21;;;;;;;;;;;14.90;64.00;;;;;;5069949;28;19912;-89
2022/03/14 10:00:47;;;;;;;;;;;14.90;64.10;;;;;;5042283;28;19920;-90
2022/03/14 10:03:14;;;;;;;;;;;15.00;64.20;;;;;;5044937;28;20392;-91
2022/03/14 10:05:40;;;;;;;;;;;15.00;64.10;;;;;;5061931;28;20018;-90
2022/03/14 10:08:06;;;;;;;;;;;15.00;64.30;;;;;;5061549;28;19916;-90
2022/03/14 10:10:32;;;;;;;;;;;14.90;64.10;;;;;;5060979;28;19962;-90
2022/03/14 10:12:58;;;;;;;;;;;14.90;64.40;;;;;;5060962;28;19924;-89
2022/03/14 10:15:27;;;;;;;;;;;14.90;64.40;;;;;;5061542;28;19908;-91
2022/03/14 10:17:53;;;;;;;;;;;14.80;64.20;;;;;;5079908;28;19919;-90
2022/03/14 10:20:20;;;;;;;;;;;14.90;64.80;;;;;;5060692;28;20420;-91
2022/03/14 10:22:46;;;;;;;;;;;14.90;64.90;;;;;;5078094;28;20725;-91
2022/03/14 10:25:13;;;;;;;;;;;14.90;64.40;;;;;;5060715;28;19908;-91
2022/03/14 10:27:44;;;;;;;;;;;15.00;64.70;;;;;;5078405;28;19912;-91
2022/03/14 10:30:30;;;;;;;;;;;15.10;65.10;;;;;;5078893;28;19909;-91
2022/03/14 10:33:05;;;;;;;;;;;15.20;65.30;;;;;;5059231;28;19947;-91
2022/03/14 10:35:39;;;;;;;;;;;15.30;65.30;;;;;;5059912;28;19912;-91
2022/03/14 10:38:06;;;;;;;;;;;15.50;65.00;;;;;;5060102;28;19917;-90
2022/03/14 10:40:36;;;;;;;;;;;15.50;65.30;;;;;;5061067;28;19917;-92
2022/03/14 10:43:24;;;;;;;;;;;15.70;65.30;;;;;;5060012;28;19924;-92
2022/03/14 10:45:50;;;;;;;;;;;15.80;65.40;;;;;;5060995;28;19920;-92
2022/03/14 10:48:17;;;;;;;;;;;15.90;65.20;;;;;;5062504;28;19913;-91
2022/03/14 10:50:43;;;;;;;;;;;15.90;65.30;;;;;;5062158;28;20494;-91
2022/03/14 10:53:08;;;;;;;;;;;16.00;65.30;;;;;;5044352;28;19963;-90
2022/03/14 10:55:39;;;;;;;;;;;16.10;65.10;;;;;;5061403;28;20007;-92
2022/03/14 10:58:09;;;;;;;;;;;16.20;65.40;;;;;;5060857;28;19931;-92
2022/03/14 11:00:44;;;;;;;;;;;16.30;65.10;;;;;;5059948;28;19917;-92
2022/03/14 11:03:10;;;;;;;;;;;16.30;65.10;;;;;;5062141;28;19955;-92
2022/03/14 11:05:43;;;;;;;;;;;16.30;64.70;;;;;;5060160;28;20432;-92
2022/03/14 11:08:25;;;;;;;;;;;16.30;64.70;;;;;;5059253;28;19913;-90
2022/03/14 11:10:50;;;;;;;;;;;16.30;64.90;;;;;;5042896;28;19916;-91
2022/03/14 11:13:15;;;;;;;;;;;16.30;64.90;;;;;;5077936;28;20261;-91
2022/03/14 11:15:41;;;;;;;;;;;16.40;64.70;;;;;;5077672;28;19985;-90
2022/03/14 11:18:16;;;;;;;;;;;16.40;65.00;;;;;;5079430;28;20394;-91
2022/03/14 11:20:42;;;;;;;;;;;16.50;64.90;;;;;;5059857;28;19916;-91
2022/03/14 11:23:08;;;;;;;;;;;16.50;65.10;;;;;;5060286;28;19920;-92
2022/03/14 11:25:37;;;;;;;;;;;16.60;65.00;;;;;;5077513;28;19912;-90
2022/03/14 11:28:03;;;;;;;;;;;16.60;64.90;;;;;;5077956;28;19912;-91
2022/03/14 11:30:29;;;;;;;;;;;16.70;65.10;;;;;;5077488;28;19915;-91
2022/03/14 11:32:57;;;;;;;;;;;16.70;64.80;;;;;;5068802;28;20280;-90
2022/03/14 11:35:23;;;;;;;;;;;16.80;65.10;;;;;;5040189;28;19954;-91
2022/03/14 11:37:49;;;;;;;;;;;16.90;64.90;;;;;;5022188;28;20292;-90
2022/03/14 11:40:15;;;;;;;;;;;17.00;64.90;;;;;;5038751;28;19913;-91
2022/03/14 11:42:40;;;;;;;;;;;17.10;65.20;;;;;;5058926;28;20706;-90
2022/03/14 11:45:07;;;;;;;;;;;17.30;65.10;;;;;;5043383;28;19913;-91
2022/03/14 11:47:32;;;;;;;;;;;17.50;64.80;;;;;;5049418;28;19983;-90
2022/03/14 11:49:58;;;;;;;;;;;17.70;65.10;;;;;;5082026;28;19952;-90
2022/03/14 11:52:34;;;;;;;;;;;17.80;64.90;;;;;;4950977;28;3189953;-89
2022/03/14 11:55:00;;;;;;;;;;;18.00;64.70;;;;;;5063676;28;19916;-90
2022/03/14 11:57:36;;;;;;;;;;;18.30;64.40;;;;;;5084339;28;19952;-89
2022/03/14 12:00:24;;;;;;;;;;;18.50;63.60;;;;;;5043512;28;19962;-90
2022/03/14 12:02:51;;;;;;;;;;;18.60;63.70;;;;;;5042942;28;19932;-91
2022/03/14 12:05:21;;;;;;;;;;;18.70;63.50;;;;;;5041767;28;19909;-90
2022/03/14 12:07:46;;;;;;;;;;;18.70;63.50;;;;;;5042347;28;19913;-90
2022/03/14 12:10:25;;;;;;;;;;;18.70;62.60;;;;;;5041288;28;20367;-90
2022/03/14 12:12:53;;;;;;;;;;;18.80;63.10;;;;;;5041841;28;19913;-90
2022/03/14 12:15:37;;;;;;;;;;;19.20;63.40;;;;;;5041336;28;19913;-89
2022/03/14 12:18:22;;;;;;;;;;;19.50;62.50;;;;;;5041910;28;19982;-90
2022/03/14 12:20:52;;;;;;;;;;;19.50;62.30;;;;;;5060222;28;19920;-89
2022/03/14 12:23:25;;;;;;;;;;;19.80;62.40;;;;;;5059720;28;19920;-90
2022/03/14 12:25:50;;;;;;;;;;;20.00;62.40;;;;;;5042090;28;19913;-89
2022/03/14 12:28:35;;;;;;;;;;;20.20;61.50;;;;;;5059540;28;19936;-90
2022/03/14 12:31:04;;;;;;;;;;;20.10;61.80;;;;;;5042802;28;19920;-91
2022/03/14 12:33:34;;;;;;;;;;;20.00;61.70;;;;;;5041593;28;20355;-92
2022/03/14 12:36:18;;;;;;;;;;;19.90;62.00;;;;;;5041226;28;20023;-90
2022/03/14 12:39:04;;;;;;;;;;;19.80;61.60;;;;;;5042018;28;19920;-90
2022/03/14 12:41:29;;;;;;;;;;;19.70;61.70;;;;;;5041918;28;19913;-92
2022/03/14 12:43:55;;;;;;;;;;;19.80;62.30;;;;;;5042288;28;19923;-90
2022/03/14 12:46:21;;;;;;;;;;;20.00;62.40;;;;;;5041516;28;19920;-90
2022/03/14 12:48:51;;;;;;;;;;;20.20;62.60;;;;;;5042027;28;20267;-91
2022/03/14 12:51:24;;;;;;;;;;;20.50;62.20;;;;;;5060476;28;19923;-90
2022/03/14 12:53:50;;;;;;;;;;;20.70;61.90;;;;;;5041978;28;19924;-91
2022/03/14 12:56:26;;;;;;;;;;;20.80;61.00;;;;;;5039907;28;19913;-90
2022/03/14 12:58:53;;;;;;;;;;;21.00;61.70;;;;;;5061024;28;19971;-91
2022/03/14 13:01:19;;;;;;;;;;;21.10;61.50;;;;;;5026223;28;19913;-91
2022/03/14 13:03:45;;;;;;;;;;;21.10;61.10;;;;;;5042063;28;20356;-91
2022/03/14 13:06:10;;;;;;;;;;;21.00;60.90;;;;;;5041440;28;19909;-90
2022/03/14 13:08:49;;;;;;;;;;;20.90;60.80;;;;;;5042684;28;19917;-91
2022/03/14 13:11:15;;;;;;;;;;;20.80;61.10;;;;;;5043452;28;20253;-91
2022/03/14 13:13:40;;;;;;;;;;;20.70;60.70;;;;;;5059771;28;19920;-90
2022/03/14 13:16:06;;;;;;;;;;;20.60;60.80;;;;;;5041731;28;19938;-90
2022/03/14 13:18:34;;;;;;;;;;;20.50;60.80;;;;;;5060386;28;19917;-90
2022/03/14 13:21:00;;;;;;;;;;;20.40;61.00;;;;;;5042418;28;19915;-91
2022/03/14 13:23:26;;;;;;;;;;;20.30;60.90;;;;;;5041807;28;19959;-91
2022/03/14 13:25:51;;;;;;;;;;;20.20;59.50;;;;;;5040713;28;20629;-90
2022/03/14 13:28:27;;;;;;;;;;;20.10;60.70;;;;;;5040717;28;19917;-90
2022/03/14 13:30:54;;;;;;;;;;;20.00;60.60;;;;;;5040583;28;19958;-90
2022/03/14 13:33:24;;;;;;;;;;;19.80;60.90;;;;;;5040930;28;19921;-89
2022/03/14 13:36:16;;;;;;;;;;;19.70;60.90;;;;;;5040266;28;19980;-90
2022/03/14 13:38:41;;;;;;;;;;;19.60;60.60;;;;;;5039061;28;20402;-91
2022/03/14 13:41:11;;;;;;;;;;;19.50;61.30;;;;;;5057840;28;19901;-91
2022/03/14 13:43:44;;;;;;;;;;;19.40;60.80;;;;;;5039996;28;19955;-90
2022/03/14 13:46:29;;;;;;;;;;;19.40;60.50;;;;;;5040497;28;19909;-90
2022/03/14 13:48:56;;;;;;;;;;;19.30;60.30;;;;;;5041412;28;19916;-90
2022/03/14 13:51:25;;;;;;;;;;;19.20;61.00;;;;;;5039023;28;19967;-89
2022/03/14 13:53:50;;;;;;;;;;;19.10;60.90;;;;;;5043010;28;19925;-90
2022/03/14 13:56:16;;;;;;;;;;;19.00;60.50;;;;;;5059446;28;19908;-89
2022/03/14 13:58:52;;;;;;;;;;;19.00;61.60;;;;;;5044124;28;19956;-89
2022/03/14 14:01:17;;;;;;;;;;;18.90;61.10;;;;;;5039160;28;19911;-89
2022/03/14 14:03:44;;;;;;;;;;;18.90;61.10;;;;;;5039675;28;19921;-89
2022/03/14 14:06:17;;;;;;;;;;;18.80;61.60;;;;;;5038700;28;20397;-90
2022/03/14 14:08:42;;;;;;;;;;;18.80;62.10;;;;;;5040071;28;20360;-90
2022/03/14 14:11:09;;;;;;;;;;;18.70;62.00;;;;;;5040064;28;19962;-89
2022/03/14 14:13:46;;;;;;;;;;;18.70;61.90;;;;;;5041399;28;20292;-89
2022/03/14 14:16:16;;;;;;;;;;;18.70;62.10;;;;;;5046207;28;20386;-90